Time;durP1;ratioP1;P1;durP2;ratioP2;P2;SDS_P1;SDS_P2;PMS_P1;PMS_P2;Temp;Humidity;BMP_temperature;BMP_pressure;BME280_temperature;BME280_humidity;BME280_pressure;Samples;Min_cycle;Max_cycle;Signal;HPM_P1;HPM_P2
2021/03/05 00:00:09;;;;;;;31.75;16.67;;;2.00;99.90;;;;;;6333308;22;20070;-63
2021/03/05 00:02:58;;;;;;;30.95;15.55;;;2.00;99.90;;;;;;6332967;22;20058;-62
2021/03/05 00:05:24;;;;;;;32.88;15.90;;;2.00;99.90;;;;;;6333174;22;20026;-63
2021/03/05 00:07:51;;;;;;;28.85;16.02;;;2.00;99.90;;;;;;6333405;22;20031;-63
2021/03/05 00:10:39;;;;;;;34.65;17.00;;;1.90;99.90;;;;;;6333248;22;20406;-63
2021/03/05 00:13:06;;;;;;;33.63;17.80;;;2.00;99.90;;;;;;6333079;22;20079;-63
2021/03/05 00:15:37;;;;;;;31.85;17.35;;;1.90;99.90;;;;;;6333458;22;20031;-63
2021/03/05 00:18:04;;;;;;;33.33;17.80;;;1.90;99.90;;;;;;6333071;22;20356;-63
2021/03/05 00:20:32;;;;;;;36.60;18.83;;;1.80;99.90;;;;;;6332851;22;20511;-63
2021/03/05 00:22:59;;;;;;;34.28;18.48;;;1.90;99.90;;;;;;6335145;22;20027;-63
2021/03/05 00:25:26;;;;;;;33.63;18.23;;;1.80;99.90;;;;;;6333760;22;20018;-63
2021/03/05 00:27:52;;;;;;;37.40;18.77;;;1.80;99.90;;;;;;6332940;22;20453;-63
2021/03/05 00:30:19;;;;;;;33.17;19.00;;;1.80;99.90;;;;;;6336559;22;20018;-63
2021/03/05 00:32:45;;;;;;;37.03;18.45;;;1.80;99.90;;;;;;6335306;22;20553;-63
2021/03/05 00:35:13;;;;;;;38.55;17.70;;;1.80;99.90;;;;;;6305231;22;20058;-63
2021/03/05 00:37:40;;;;;;;31.73;18.05;;;1.80;99.90;;;;;;6332431;22;20057;-63
2021/03/05 00:40:08;;;;;;;33.70;17.48;;;1.80;99.90;;;;;;6336803;22;20022;-63
2021/03/05 00:42:35;;;;;;;37.10;18.35;;;1.80;99.90;;;;;;6333201;22;20045;-63
2021/03/05 00:45:01;;;;;;;41.58;19.05;;;1.80;99.90;;;;;;6306531;22;20079;-63
2021/03/05 00:47:27;;;;;;;37.33;19.20;;;1.70;99.90;;;;;;6332859;22;20015;-63
2021/03/05 00:49:53;;;;;;;34.83;18.70;;;1.70;99.90;;;;;;6305522;22;20042;-63
2021/03/05 00:52:19;;;;;;;40.72;20.60;;;1.70;99.90;;;;;;6335065;22;20018;-63
2021/03/05 00:54:45;;;;;;;41.45;20.42;;;1.70;99.90;;;;;;6306927;22;20080;-63
2021/03/05 00:57:11;;;;;;;42.67;21.58;;;1.70;99.90;;;;;;6304804;22;20105;-63
2021/03/05 00:59:37;;;;;;;43.35;21.65;;;1.70;99.90;;;;;;6309499;22;20053;-63
2021/03/05 01:02:03;;;;;;;42.40;22.40;;;1.70;99.90;;;;;;6308368;22;20021;-63
2021/03/05 01:04:29;;;;;;;46.15;22.95;;;1.70;99.90;;;;;;6305487;22;20025;-63
2021/03/05 01:06:58;;;;;;;47.95;23.25;;;1.70;99.90;;;;;;6279679;22;20022;-63
2021/03/05 01:09:26;;;;;;;47.40;21.73;;;1.70;99.90;;;;;;6304666;22;20098;-63
2021/03/05 01:11:52;;;;;;;47.40;23.60;;;1.70;99.90;;;;;;6332869;22;20014;-63
2021/03/05 01:14:18;;;;;;;51.92;23.85;;;1.70;99.90;;;;;;6332855;22;20044;-63
2021/03/05 01:16:44;;;;;;;45.90;23.70;;;1.70;99.90;;;;;;6332904;22;20018;-63
2021/03/05 01:19:12;;;;;;;50.58;23.20;;;1.80;99.90;;;;;;6332695;22;20072;-63
2021/03/05 01:21:38;;;;;;;47.65;23.08;;;1.70;99.90;;;;;;6308422;22;20029;-63
2021/03/05 01:24:05;;;;;;;51.15;22.92;;;1.70;99.90;;;;;;6333159;22;20097;-63
2021/03/05 01:26:32;;;;;;;47.30;22.55;;;1.80;99.90;;;;;;6332903;22;20057;-63
2021/03/05 01:28:58;;;;;;;50.03;23.40;;;1.80;99.90;;;;;;6332804;22;20039;-63
2021/03/05 01:31:24;;;;;;;49.90;23.42;;;1.80;99.90;;;;;;6336418;22;20468;-62
2021/03/05 01:33:50;;;;;;;48.05;23.42;;;1.80;99.90;;;;;;6332689;22;20423;-63
2021/03/05 01:36:16;;;;;;;50.80;23.25;;;1.80;99.90;;;;;;6331252;22;20079;-63
2021/03/05 01:38:42;;;;;;;48.90;23.35;;;1.70;99.90;;;;;;6331919;22;20023;-63
2021/03/05 01:41:09;;;;;;;54.15;24.10;;;1.80;99.90;;;;;;6304944;22;20018;-63
2021/03/05 01:43:38;;;;;;;49.00;22.75;;;1.70;99.90;;;;;;6335739;22;20109;-63
2021/03/05 01:46:05;;;;;;;50.92;23.95;;;1.70;99.90;;;;;;6305198;22;20026;-63
2021/03/05 01:48:32;;;;;;;50.45;23.70;;;1.70;99.90;;;;;;6332218;22;20099;-63
2021/03/05 01:51:04;;;;;;;46.00;22.73;;;1.70;99.90;;;;;;6332283;22;20099;-63
2021/03/05 01:53:30;;;;;;;51.75;22.25;;;1.70;99.90;;;;;;6307718;22;20022;-63
2021/03/05 01:55:58;;;;;;;47.95;23.08;;;1.60;99.90;;;;;;6331964;22;20090;-63
2021/03/05 01:58:25;;;;;;;47.30;22.33;;;1.60;99.90;;;;;;6332535;22;20456;-63
2021/03/05 02:01:00;;;;;;;44.15;20.80;;;1.60;99.90;;;;;;6309236;22;20076;-63
2021/03/05 02:03:30;;;;;;;38.03;19.30;;;1.60;99.90;;;;;;6332171;22;20042;-63
2021/03/05 02:05:57;;;;;;;41.78;21.33;;;1.50;99.90;;;;;;6332423;22;20027;-63
2021/03/05 02:08:23;;;;;;;36.75;19.58;;;1.50;99.90;;;;;;6331899;22;20076;-63
2021/03/05 02:10:49;;;;;;;41.47;20.20;;;1.50;99.90;;;;;;6332281;22;20038;-63
2021/03/05 02:13:15;;;;;;;34.50;18.98;;;1.40;99.90;;;;;;6332651;22;20026;-63
2021/03/05 02:15:42;;;;;;;39.35;19.52;;;1.50;99.90;;;;;;6332185;22;20015;-63
2021/03/05 02:18:47;;;;;;;37.20;19.13;;;1.50;99.90;;;;;;6332168;22;20046;-63
2021/03/05 02:21:41;;;;;;;34.53;18.73;;;1.40;99.90;;;;;;6334878;22;20022;-63
2021/03/05 02:24:41;;;;;;;39.88;19.83;;;1.40;99.90;;;;;;6334290;22;20022;-62
2021/03/05 02:27:38;;;;;;;38.17;19.33;;;1.40;99.90;;;;;;6338253;22;20019;-62
2021/03/05 02:30:32;;;;;;;37.92;18.58;;;1.50;99.90;;;;;;6333975;22;20710;-62
2021/03/05 02:33:06;;;;;;;41.65;19.70;;;1.50;99.90;;;;;;6336470;22;20022;-63
2021/03/05 02:35:33;;;;;;;39.35;19.38;;;1.50;99.90;;;;;;6333918;22;20015;-63
2021/03/05 02:38:08;;;;;;;40.33;18.20;;;1.50;99.90;;;;;;6338368;22;20014;-63
2021/03/05 02:40:47;;;;;;;41.25;18.40;;;1.50;99.90;;;;;;6333949;22;20096;-63
2021/03/05 02:43:18;;;;;;;39.88;18.02;;;1.60;99.90;;;;;;6334462;22;20087;-63
2021/03/05 02:45:52;;;;;;;39.53;18.55;;;1.50;99.90;;;;;;6333842;22;20085;-63
2021/03/05 02:48:21;;;;;;;41.22;17.92;;;1.60;99.90;;;;;;6336191;22;20022;-63
2021/03/05 02:50:52;;;;;;;43.35;19.55;;;1.60;99.90;;;;;;6306046;22;20791;-63
2021/03/05 02:53:22;;;;;;;44.45;18.15;;;1.50;99.90;;;;;;6337976;22;20018;-63
2021/03/05 02:55:52;;;;;;;41.75;17.17;;;1.60;99.90;;;;;;6333662;22;20501;-63
2021/03/05 02:58:20;;;;;;;27.63;14.23;;;1.60;99.90;;;;;;6335472;22;20356;-63
2021/03/05 03:00:46;;;;;;;27.30;13.88;;;1.60;99.90;;;;;;6333624;22;20015;-63
2021/03/05 03:03:13;;;;;;;19.75;11.63;;;1.60;99.90;;;;;;6334064;22;20053;-63
2021/03/05 03:05:41;;;;;;;25.42;12.55;;;1.60;99.90;;;;;;6333798;22;20022;-63
2021/03/05 03:08:09;;;;;;;31.83;13.68;;;1.50;99.90;;;;;;6335304;22;20029;-63
2021/03/05 03:10:36;;;;;;;32.67;13.90;;;1.60;99.90;;;;;;6333454;22;20054;-63
2021/03/05 03:13:04;;;;;;;31.98;13.63;;;1.50;99.90;;;;;;6337787;22;20023;-62
2021/03/05 03:15:32;;;;;;;32.10;12.93;;;1.50;99.90;;;;;;6308867;22;20098;-63
2021/03/05 03:18:00;;;;;;;21.13;12.27;;;1.60;99.90;;;;;;6333758;22;20042;-63
2021/03/05 03:20:26;;;;;;;19.15;10.88;;;1.60;99.90;;;;;;6333655;22;20345;-63
2021/03/05 03:22:53;;;;;;;15.60;9.98;;;1.60;99.90;;;;;;6310092;22;20459;-62
2021/03/05 03:25:21;;;;;;;17.92;10.57;;;1.60;99.90;;;;;;6333718;22;20054;-62
2021/03/05 03:27:47;;;;;;;17.05;9.45;;;1.70;99.90;;;;;;6306357;22;20015;-63
2021/03/05 03:30:16;;;;;;;13.63;8.30;;;1.60;99.90;;;;;;6333583;22;20243;-63
2021/03/05 03:32:44;;;;;;;13.95;8.10;;;1.60;99.90;;;;;;6332891;22;20045;-63
2021/03/05 03:35:12;;;;;;;11.43;8.35;;;1.60;99.90;;;;;;6336239;22;20023;-63
2021/03/05 03:37:38;;;;;;;9.63;7.55;;;1.70;99.90;;;;;;6333470;22;20023;-63
2021/03/05 03:40:09;;;;;;;13.88;8.05;;;1.70;99.90;;;;;;6333446;22;20532;-63
2021/03/05 03:42:36;;;;;;;15.48;8.38;;;1.70;99.90;;;;;;6337241;22;20023;-63
2021/03/05 03:45:04;;;;;;;13.35;8.63;;;1.70;99.90;;;;;;6336081;22;20080;-63
2021/03/05 03:47:31;;;;;;;11.82;7.88;;;1.70;99.90;;;;;;6332801;22;20353;-63
2021/03/05 03:50:00;;;;;;;11.20;8.80;;;1.70;99.90;;;;;;6333092;22;20459;-63
2021/03/05 03:53:02;;;;;;;10.15;7.93;;;1.70;99.90;;;;;;6336895;22;20029;-63
2021/03/05 03:55:28;;;;;;;12.33;8.17;;;1.60;99.90;;;;;;6307600;22;20038;-63
2021/03/05 03:57:55;;;;;;;13.98;9.15;;;1.60;99.90;;;;;;6336829;22;20030;-63
2021/03/05 04:00:22;;;;;;;11.50;7.97;;;1.60;99.90;;;;;;6333684;22;20022;-63
2021/03/05 04:02:54;;;;;;;10.02;7.72;;;1.50;99.90;;;;;;6332953;22;20484;-63
2021/03/05 04:05:24;;;;;;;11.52;6.93;;;1.40;99.90;;;;;;6333231;22;20022;-63
2021/03/05 04:07:51;;;;;;;6.10;5.15;;;1.30;99.90;;;;;;6333193;22;20046;-63
2021/03/05 04:10:18;;;;;;;6.10;4.63;;;1.20;99.90;;;;;;6333296;22;20023;-63
2021/03/05 04:12:46;;;;;;;4.75;4.10;;;1.10;99.90;;;;;;6333108;22;20737;-63
2021/03/05 04:15:13;;;;;;;3.95;3.10;;;1.00;99.90;;;;;;6333346;22;20115;-63
2021/03/05 04:17:39;;;;;;;4.88;2.72;;;1.00;99.90;;;;;;6336496;22;20023;-63
2021/03/05 04:20:06;;;;;;;5.32;2.78;;;0.90;99.90;;;;;;6333337;22;20445;-63
2021/03/05 04:22:33;;;;;;;3.63;3.13;;;0.80;99.90;;;;;;6333430;22;20039;-63
2021/03/05 04:25:01;;;;;;;6.00;2.30;;;0.70;99.90;;;;;;6305594;22;20014;-63
2021/03/05 04:27:27;;;;;;;4.68;1.70;;;0.70;99.90;;;;;;6309086;22;20014;-63
2021/03/05 04:29:54;;;;;;;3.83;2.13;;;0.60;99.90;;;;;;6332886;22;20022;-63
2021/03/05 04:32:20;;;;;;;3.50;1.90;;;0.50;99.90;;;;;;6333205;22;20018;-63
2021/03/05 04:34:46;;;;;;;4.07;1.80;;;0.50;99.90;;;;;;6333152;22;20402;-63
2021/03/05 04:37:12;;;;;;;4.38;2.20;;;0.40;99.90;;;;;;6332967;22;20054;-63
2021/03/05 04:39:38;;;;;;;3.22;1.65;;;0.40;99.90;;;;;;6335722;22;20045;-63
2021/03/05 04:42:04;;;;;;;3.80;2.00;;;0.30;99.90;;;;;;6333060;22;20063;-62
2021/03/05 04:44:30;;;;;;;6.55;2.35;;;0.30;99.90;;;;;;6332641;22;20042;-63
2021/03/05 04:46:56;;;;;;;6.32;2.30;;;0.40;99.90;;;;;;6337002;22;20452;-63
2021/03/05 04:49:22;;;;;;;6.15;2.80;;;0.30;99.90;;;;;;6335954;22;20014;-63
2021/03/05 04:51:48;;;;;;;4.35;2.83;;;0.30;99.90;;;;;;6332809;22;20136;-63
2021/03/05 04:54:14;;;;;;;7.95;2.80;;;0.30;99.90;;;;;;6305491;22;20058;-63
2021/03/05 04:56:39;;;;;;;3.47;2.13;;;0.30;99.90;;;;;;6332822;22;20072;-63
2021/03/05 04:59:05;;;;;;;5.53;3.45;;;0.30;99.90;;;;;;6332926;22;20030;-63
2021/03/05 05:01:31;;;;;;;5.10;2.65;;;0.30;99.90;;;;;;6335604;22;20026;-63
2021/03/05 05:03:57;;;;;;;5.63;2.63;;;0.30;99.90;;;;;;6332549;22;20026;-63
2021/03/05 05:06:23;;;;;;;11.00;2.75;;;0.30;99.90;;;;;;6332554;22;20046;-63
2021/03/05 05:08:49;;;;;;;4.68;2.97;;;0.30;99.90;;;;;;6336621;22;20072;-63
2021/03/05 05:11:15;;;;;;;4.50;3.15;;;0.30;99.90;;;;;;6335714;22;20097;-63
2021/03/05 05:13:41;;;;;;;7.22;3.15;;;0.30;99.90;;;;;;6332880;22;20038;-63
2021/03/05 05:16:07;;;;;;;4.68;2.97;;;0.20;99.90;;;;;;6333144;22;20413;-63
2021/03/05 05:18:33;;;;;;;5.20;3.92;;;0.20;99.90;;;;;;6332927;22;20474;-63
2021/03/05 05:20:59;;;;;;;7.18;3.40;;;0.30;99.90;;;;;;6305168;22;20452;-63
2021/03/05 05:23:25;;;;;;;3.95;2.50;;;0.30;99.90;;;;;;6305352;22;20030;-63
2021/03/05 05:25:51;;;;;;;6.93;3.20;;;0.30;99.90;;;;;;6332884;22;20541;-63
2021/03/05 05:28:17;;;;;;;3.53;1.90;;;0.30;99.90;;;;;;6332392;22;20030;-63
2021/03/05 05:30:43;;;;;;;5.63;2.85;;;0.30;99.90;;;;;;6308867;22;20019;-63
2021/03/05 05:33:09;;;;;;;7.95;2.45;;;0.30;99.90;;;;;;6305111;22;20460;-63
2021/03/05 05:35:35;;;;;;;4.60;2.72;;;0.20;99.90;;;;;;6332766;22;20057;-63
2021/03/05 05:38:01;;;;;;;8.93;2.97;;;0.30;99.90;;;;;;6305099;22;20018;-63
2021/03/05 05:40:29;;;;;;;4.25;2.22;;;0.20;99.90;;;;;;6337048;22;20022;-62
2021/03/05 05:42:55;;;;;;;5.60;2.30;;;0.10;99.90;;;;;;6331708;22;20743;-62
2021/03/05 05:45:22;;;;;;;4.95;2.08;;;0.20;99.90;;;;;;6330131;22;20025;-62
2021/03/05 05:47:48;;;;;;;14.05;2.42;;;0.20;99.90;;;;;;6332360;22;20039;-62
2021/03/05 05:50:14;;;;;;;5.18;2.45;;;0.20;99.90;;;;;;6332643;22;20102;-63
2021/03/05 05:52:41;;;;;;;6.60;2.15;;;0.20;99.90;;;;;;6334349;22;20046;-62
2021/03/05 05:55:08;;;;;;;6.15;2.15;;;0.20;99.90;;;;;;6331393;22;20033;-62
2021/03/05 05:57:37;;;;;;;6.18;1.90;;;0.30;99.90;;;;;;6334499;22;20106;-62
2021/03/05 06:00:04;;;;;;;6.57;2.08;;;0.30;99.90;;;;;;6336382;22;20338;-62
2021/03/05 06:02:32;;;;;;;6.18;2.42;;;0.30;99.90;;;;;;6332370;22;20026;-62
2021/03/05 06:04:58;;;;;;;8.43;2.65;;;0.40;99.90;;;;;;6331376;22;20061;-62
2021/03/05 06:07:25;;;;;;;10.18;3.60;;;0.40;99.90;;;;;;6306697;22;20022;-61
2021/03/05 06:09:52;;;;;;;8.20;3.75;;;0.50;99.90;;;;;;6331668;22;20033;-63
2021/03/05 06:12:19;;;;;;;9.27;3.50;;;0.50;99.90;;;;;;6331164;22;20022;-61
2021/03/05 06:14:46;;;;;;;14.73;5.32;;;0.60;99.90;;;;;;6333592;22;20080;-62
2021/03/05 06:17:12;;;;;;;10.40;5.05;;;0.50;99.90;;;;;;6334130;22;20042;-62
2021/03/05 06:19:39;;;;;;;13.25;4.78;;;0.60;99.90;;;;;;6333965;22;20097;-62
2021/03/05 06:22:19;;;;;;;11.23;4.55;;;0.60;99.90;;;;;;6309035;22;20019;-63
2021/03/05 06:24:45;;;;;;;10.20;4.90;;;0.60;99.90;;;;;;6334624;22;20349;-62
2021/03/05 06:27:12;;;;;;;7.60;5.13;;;0.60;99.90;;;;;;6334709;22;20022;-62
2021/03/05 06:29:45;;;;;;;10.20;5.38;;;0.60;99.90;;;;;;6334077;22;20403;-62
2021/03/05 06:32:13;;;;;;;11.43;6.47;;;0.60;99.90;;;;;;6337707;22;20023;-63
2021/03/05 06:34:44;;;;;;;12.75;5.53;;;0.60;99.90;;;;;;6334322;22;20390;-62
2021/03/05 06:37:10;;;;;;;10.02;5.53;;;0.60;99.90;;;;;;6334195;22;20432;-62
2021/03/05 06:39:36;;;;;;;11.43;6.22;;;0.50;99.90;;;;;;6337555;22;20022;-62
2021/03/05 06:42:04;;;;;;;11.15;5.78;;;0.50;99.90;;;;;;6334070;22;20042;-62
2021/03/05 06:44:30;;;;;;;14.57;6.25;;;0.60;99.90;;;;;;6333841;22;20038;-61
2021/03/05 06:46:57;;;;;;;16.77;7.60;;;0.60;99.90;;;;;;6334098;22;20023;-62
2021/03/05 06:49:26;;;;;;;13.85;7.03;;;0.60;99.90;;;;;;6334064;22;20107;-63
2021/03/05 06:51:55;;;;;;;11.65;6.88;;;0.70;99.90;;;;;;6333863;22;20021;-64
2021/03/05 06:54:29;;;;;;;10.73;7.00;;;0.70;99.90;;;;;;6336733;22;20026;-64
2021/03/05 06:56:56;;;;;;;14.77;7.53;;;0.80;99.90;;;;;;6333513;22;20097;-64
2021/03/05 06:59:23;;;;;;;15.00;8.20;;;0.90;99.90;;;;;;6336088;22;20018;-64
2021/03/05 07:01:56;;;;;;;14.05;8.50;;;0.90;99.90;;;;;;6335901;22;20098;-65
2021/03/05 07:04:27;;;;;;;14.05;7.07;;;1.00;99.90;;;;;;6333292;22;20483;-65
2021/03/05 07:07:02;;;;;;;9.50;6.88;;;1.00;99.90;;;;;;6337141;22;20026;-65
2021/03/05 07:09:39;;;;;;;13.88;8.13;;;1.10;99.90;;;;;;6333414;22;20038;-64
2021/03/05 07:12:12;;;;;;;13.82;7.50;;;1.30;99.90;;;;;;6337177;22;20014;-66
2021/03/05 07:14:41;;;;;;;9.95;6.43;;;1.40;99.90;;;;;;6333427;22;20054;-66
2021/03/05 07:17:08;;;;;;;15.27;6.97;;;1.70;99.90;;;;;;6333375;22;20437;-65
2021/03/05 07:19:36;;;;;;;12.35;6.32;;;1.90;99.90;;;;;;6336700;22;20046;-67
2021/03/05 07:22:04;;;;;;;18.67;7.57;;;2.00;99.90;;;;;;6306390;22;20099;-66
2021/03/05 07:24:31;;;;;;;16.02;7.45;;;2.10;99.90;;;;;;6337812;22;20029;-65
2021/03/05 07:27:01;;;;;;;12.70;7.68;;;2.10;99.90;;;;;;6333821;22;20018;-66
2021/03/05 07:29:37;;;;;;;13.27;7.20;;;2.20;99.90;;;;;;6333156;22;20038;-66
2021/03/05 07:32:03;;;;;;;30.67;14.60;;;2.20;99.90;;;;;;6336273;22;20046;-67
2021/03/05 07:34:50;;;;;;;21.08;10.02;;;2.30;99.90;;;;;;6305968;22;20098;-67
2021/03/05 07:37:18;;;;;;;11.27;7.57;;;2.20;99.90;;;;;;6332712;22;20105;-67
2021/03/05 07:39:49;;;;;;;16.88;7.75;;;2.30;99.90;;;;;;6333390;22;20114;-67
2021/03/05 07:42:17;;;;;;;15.30;6.35;;;2.60;99.90;;;;;;6337778;22;20022;-69
2021/03/05 07:44:49;;;;;;;13.13;5.85;;;2.80;99.90;;;;;;6333177;22;20460;-69
2021/03/05 07:47:16;;;;;;;14.40;7.82;;;3.10;99.90;;;;;;6333637;22;20015;-69
2021/03/05 07:49:42;;;;;;;16.25;5.85;;;3.30;99.90;;;;;;6283879;22;20023;-64
2021/03/05 07:52:09;;;;;;;13.38;6.93;;;3.70;99.90;;;;;;6304135;22;20523;-66
2021/03/05 07:54:41;;;;;;;10.55;5.75;;;4.40;99.90;;;;;;6330561;22;20088;-66
2021/03/05 07:57:14;;;;;;;10.55;6.10;;;5.00;99.90;;;;;;6336160;22;20536;-66
2021/03/05 07:59:40;;;;;;;12.27;5.63;;;5.30;99.90;;;;;;6332196;22;20093;-63
2021/03/05 08:02:07;;;;;;;12.73;6.18;;;5.60;96.70;;;;;;6332667;22;20054;-63
2021/03/05 08:07:18;;;;;;;11.57;4.93;;;6.10;94.70;;;;;;6332465;22;20097;-61
2021/03/05 08:09:44;;;;;;;8.15;4.68;;;6.00;92.50;;;;;;6336232;22;20022;-62
2021/03/05 08:12:29;;;;;;;12.88;4.82;;;6.00;95.30;;;;;;6333998;22;20071;-61
2021/03/05 08:15:06;;;;;;;9.23;4.55;;;5.90;92.10;;;;;;6331343;22;20121;-61
2021/03/05 08:17:34;;;;;;;12.85;4.47;;;5.80;91.00;;;;;;6333652;22;20341;-61
2021/03/05 08:20:02;;;;;;;9.50;4.88;;;5.80;90.30;;;;;;6332291;22;20076;-62
2021/03/05 08:22:31;;;;;;;8.15;4.65;;;6.00;91.30;;;;;;6335637;22;20804;-61
2021/03/05 08:25:27;;;;;;;12.50;5.43;;;6.20;90.80;;;;;;6332282;22;20026;-62
2021/03/05 08:27:55;;;;;;;10.60;5.00;;;6.60;90.20;;;;;;6331737;22;20015;-64
2021/03/05 08:30:42;;;;;;;10.63;5.10;;;7.00;94.40;;;;;;6332009;22;20027;-64
2021/03/05 08:33:25;;;;;;;8.38;4.28;;;7.10;81.20;;;;;;6304885;22;20042;-62
2021/03/05 08:35:51;;;;;;;;;;;7.10;83.30;;;;;;6337109;22;20468;-64
2021/03/05 08:38:21;;;;;;;7.07;4.78;;;6.60;81.70;;;;;;6332564;22;19950;-65
2021/03/05 08:40:47;;;;;;;10.05;4.65;;;6.10;85.10;;;;;;6333539;22;20014;-65
2021/03/05 08:43:19;;;;;;;3.63;3.30;;;6.00;89.00;;;;;;6332294;22;20387;-65
2021/03/05 08:45:50;;;;;;;8.98;3.75;;;5.50;81.80;;;;;;6332163;22;20152;-64
2021/03/05 08:48:36;;;;;;;8.35;3.75;;;5.30;81.90;;;;;;6332526;22;20080;-64
2021/03/05 08:51:13;;;;;;;7.95;4.10;;;5.10;83.20;;;;;;6304457;22;20097;-64
2021/03/05 08:53:44;;;;;;;10.95;4.10;;;4.90;81.70;;;;;;6304414;22;20042;-64
2021/03/05 08:56:15;;;;;;;4.60;3.15;;;4.70;81.20;;;;;;6304432;22;20020;-64
2021/03/05 08:58:42;;;;;;;7.05;3.45;;;4.60;79.40;;;;;;6305697;22;20022;-64
2021/03/05 09:01:30;;;;;;;9.13;3.28;;;4.70;84.40;;;;;;6335947;22;20038;-63
2021/03/05 09:04:18;;;;;;;9.02;3.88;;;5.00;81.10;;;;;;6331355;22;20050;-64
2021/03/05 09:06:48;;;;;;;9.07;3.58;;;5.60;84.40;;;;;;6332201;22;20030;-63
2021/03/05 09:09:14;;;;;;;7.35;3.55;;;6.20;81.20;;;;;;6332243;22;20042;-63
2021/03/05 09:11:40;;;;;;;7.45;4.53;;;6.80;76.20;;;;;;6336182;22;20023;-64
2021/03/05 09:14:22;;;;;;;9.27;4.25;;;7.20;75.10;;;;;;6334793;22;20041;-64
2021/03/05 09:17:02;;;;;;;10.38;4.40;;;7.30;71.30;;;;;;6304035;22;20417;-62
2021/03/05 09:19:36;;;;;;;8.10;3.95;;;7.10;71.60;;;;;;6306208;22;20022;-62
2021/03/05 09:22:16;;;;;;;6.60;3.13;;;7.10;75.80;;;;;;6304401;22;20018;-62
2021/03/05 09:24:53;;;;;;;8.70;3.42;;;7.40;72.90;;;;;;6331833;22;20097;-64
2021/03/05 09:27:21;;;;;;;3.72;1.95;;;7.50;70.10;;;;;;6331678;22;20114;-64
2021/03/05 09:29:48;;;;;;;5.68;2.08;;;7.30;65.20;;;;;;6334853;22;20026;-64
2021/03/05 09:32:14;;;;;;;3.47;1.70;;;7.10;66.40;;;;;;6277617;22;20022;-65
2021/03/05 09:34:49;;;;;;;2.70;1.27;;;7.20;65.20;;;;;;6330169;22;20050;-64
2021/03/05 09:37:20;;;;;;;25.25;4.15;;;7.40;67.20;;;;;;6305322;22;20025;-65
2021/03/05 09:39:47;;;;;;;2.88;2.05;;;7.20;61.80;;;;;;6303068;22;20491;-64
2021/03/05 09:42:14;;;;;;;3.45;1.77;;;7.40;65.70;;;;;;6335124;22;20025;-65
2021/03/05 09:44:44;;;;;;;7.60;1.77;;;7.70;61.40;;;;;;6333531;22;20018;-65
2021/03/05 09:47:10;;;;;;;6.78;2.22;;;8.30;60.20;;;;;;6330734;22;20409;-64
2021/03/05 09:49:36;;;;;;;4.70;2.22;;;9.00;58.80;;;;;;6307853;22;20019;-64
2021/03/05 09:52:03;;;;;;;11.90;2.42;;;9.70;57.70;;;;;;6334142;22;20030;-64
2021/03/05 09:54:33;;;;;;;6.70;2.20;;;10.50;54.90;;;;;;6303789;22;20061;-65
2021/03/05 09:56:59;;;;;;;7.50;3.13;;;11.50;53.70;;;;;;6335681;22;20050;-63
2021/03/05 09:59:45;;;;;;;5.18;2.20;;;12.90;52.80;;;;;;6334213;22;20025;-63
2021/03/05 10:02:22;;;;;;;1.48;1.38;;;13.10;46.80;;;;;;6332000;22;20061;-63
2021/03/05 10:04:50;;;;;;;3.80;1.30;;;12.40;47.40;;;;;;6333133;22;20029;-63
2021/03/05 10:07:18;;;;;;;2.58;1.50;;;11.50;47.00;;;;;;6303971;22;20585;-63
2021/03/05 10:09:43;;;;;;;10.35;2.03;;;10.60;51.50;;;;;;6307215;22;20015;-62
2021/03/05 10:12:10;;;;;;;20.58;2.35;;;11.30;50.60;;;;;;6332054;22;20574;-62
2021/03/05 10:14:36;;;;;;;11.38;1.55;;;12.90;51.70;;;;;;6303813;22;20085;-63
2021/03/05 10:17:17;;;;;;;13.63;2.75;;;14.40;43.30;;;;;;6335108;22;20022;-63
2021/03/05 10:19:44;;;;;;;5.97;1.58;;;15.30;46.80;;;;;;6331185;22;20022;-63
2021/03/05 10:22:11;;;;;;;169.00;13.82;;;16.50;39.70;;;;;;6334687;22;20071;-64
2021/03/05 10:24:37;;;;;;;4.38;1.58;;;17.80;37.80;;;;;;6331575;22;20026;-64
2021/03/05 10:29:42;;;;;;;67.22;6.43;;;19.90;31.30;;;;;;6334983;22;20364;-64
2021/03/05 10:32:29;;;;;;;2.10;0.93;;;19.70;30.90;;;;;;6331622;22;20053;-64
2021/03/05 10:35:07;;;;;;;3.65;1.25;;;19.40;34.70;;;;;;6335231;22;20405;-68
2021/03/05 10:37:33;;;;;;;5.97;1.23;;;19.10;37.70;;;;;;6278492;22;20047;-66
2021/03/05 10:40:00;;;;;;;957.03;91.30;;;18.70;33.00;;;;;;6331661;22;20022;-65
2021/03/05 10:42:28;;;;;;;135.70;12.02;;;19.00;30.30;;;;;;6332546;22;20072;-66
2021/03/05 10:44:54;;;;;;;78.47;7.80;;;19.30;32.40;;;;;;6333037;22;20534;-66
2021/03/05 10:47:22;;;;;;;162.02;14.13;;;19.20;31.30;;;;;;6333708;22;20135;-67
2021/03/05 10:49:48;;;;;;;14.13;2.45;;;19.00;29.20;;;;;;6308803;22;20510;-65
2021/03/05 10:52:22;;;;;;;101.15;8.07;;;18.80;31.10;;;;;;6333576;22;20080;-65
2021/03/05 10:54:48;;;;;;;425.75;37.13;;;19.10;31.80;;;;;;6337569;22;20026;-67
2021/03/05 10:57:16;;;;;;;30.83;4.97;;;19.60;29.80;;;;;;6308485;22;20131;-67
2021/03/05 10:59:43;;;;;;;8.48;2.33;;;19.50;27.40;;;;;;6333277;22;20098;-67
2021/03/05 11:02:10;;;;;;;10.00;3.35;;;19.80;27.90;;;;;;6333213;22;20027;-67
2021/03/05 11:04:36;;;;;;;3.60;1.20;;;20.20;29.80;;;;;;6335586;22;20018;-67
2021/03/05 11:07:03;;;;;;;7.25;1.73;;;20.90;33.50;;;;;;6333006;22;20038;-64
2021/03/05 11:09:29;;;;;;;6.15;2.05;;;21.60;27.30;;;;;;6337578;22;20018;-66
2021/03/05 11:11:56;;;;;;;6.28;1.75;;;21.20;26.40;;;;;;6336422;22;20026;-68
2021/03/05 11:14:23;;;;;;;9.02;2.38;;;21.00;27.00;;;;;;6333207;22;20403;-67
2021/03/05 11:16:50;;;;;;;14.52;3.22;;;20.90;26.50;;;;;;6333148;22;20449;-69
2021/03/05 11:19:17;;;;;;;8.35;1.60;;;20.30;27.80;;;;;;6335668;22;20023;-67
2021/03/05 11:21:43;;;;;;;4.65;2.00;;;20.40;27.30;;;;;;6332814;22;20018;-67
2021/03/05 11:24:10;;;;;;;15.60;2.90;;;21.00;27.10;;;;;;6333065;22;20023;-64
2021/03/05 11:26:36;;;;;;;3.08;1.00;;;21.00;27.20;;;;;;6335903;22;20068;-68
2021/03/05 11:29:03;;;;;;;2.58;1.00;;;20.20;28.70;;;;;;6305736;22;20054;-66
2021/03/05 11:31:29;;;;;;;30.13;2.08;;;19.40;28.90;;;;;;6333148;22;20030;-64
2021/03/05 11:33:55;;;;;;;16.45;1.10;;;19.20;31.90;;;;;;6335992;22;20015;-63
2021/03/05 11:36:21;;;;;;;5.75;0.85;;;19.10;31.70;;;;;;6332459;22;20047;-63
2021/03/05 11:38:49;;;;;;;4.50;0.38;;;18.80;33.20;;;;;;6332739;22;20022;-64
2021/03/05 11:41:16;;;;;;;3.53;0.63;;;18.30;31.80;;;;;;6336354;22;20425;-63
2021/03/05 11:43:47;;;;;;;2.60;0.25;;;17.70;30.70;;;;;;6332375;22;20104;-63
2021/03/05 11:46:14;;;;;;;4.70;0.50;;;16.90;31.90;;;;;;6337461;22;20039;-63
2021/03/05 11:48:40;;;;;;;11.30;0.80;;;16.50;37.00;;;;;;6335662;22;20018;-64
2021/03/05 11:51:07;;;;;;;8.45;0.45;;;16.20;32.60;;;;;;6333009;22;20053;-64
2021/03/05 11:53:33;;;;;;;3.80;0.70;;;15.80;30.80;;;;;;6305033;22;20101;-62
2021/03/05 11:55:59;;;;;;;9.65;1.00;;;15.20;30.40;;;;;;6332381;22;20406;-62
2021/03/05 11:58:25;;;;;;;7.28;0.82;;;15.00;37.50;;;;;;6334770;22;20046;-62
2021/03/05 12:00:51;;;;;;;6.88;0.68;;;15.00;34.80;;;;;;6332226;22;20058;-60
2021/03/05 12:03:17;;;;;;;12.13;0.98;;;15.10;38.70;;;;;;6335924;22;20369;-60
2021/03/05 12:05:43;;;;;;;13.35;0.85;;;15.10;38.00;;;;;;6306764;22;20023;-60
2021/03/05 12:08:09;;;;;;;3.33;0.85;;;15.10;31.70;;;;;;6332533;22;20443;-61
2021/03/05 12:10:35;;;;;;;4.82;0.88;;;14.60;30.60;;;;;;6336816;22;20019;-61
2021/03/05 12:13:01;;;;;;;7.40;1.05;;;14.40;32.50;;;;;;6305494;22;20051;-60
2021/03/05 12:15:27;;;;;;;26.27;1.27;;;14.50;34.80;;;;;;6332423;22;20053;-60
2021/03/05 12:17:53;;;;;;;2.58;0.60;;;14.20;31.00;;;;;;6336360;22;20018;-60
2021/03/05 12:20:19;;;;;;;3.63;0.65;;;13.60;30.60;;;;;;6335001;22;20014;-60
2021/03/05 12:22:45;;;;;;;11.32;0.60;;;13.00;31.30;;;;;;6304797;22;20378;-61
2021/03/05 12:25:13;;;;;;;6.00;1.00;;;12.60;31.30;;;;;;6336827;22;20029;-60
2021/03/05 12:27:39;;;;;;;6.95;0.60;;;12.50;31.60;;;;;;6335204;22;20015;-63
2021/03/05 12:30:06;;;;;;;11.40;0.70;;;12.70;39.10;;;;;;6305055;22;20042;-63
2021/03/05 12:32:32;;;;;;;2.40;0.30;;;13.10;37.10;;;;;;6332864;22;20026;-61
2021/03/05 12:34:58;;;;;;;4.95;0.32;;;13.10;36.60;;;;;;6335609;22;20427;-61
2021/03/05 12:37:24;;;;;;;4.63;0.22;;;13.00;34.70;;;;;;6304213;22;20408;-61
2021/03/05 12:39:50;;;;;;;4.60;0.30;;;12.70;34.30;;;;;;6332289;22;20088;-61
2021/03/05 12:42:16;;;;;;;3.13;0.38;;;12.30;30.60;;;;;;6335936;22;20768;-63
2021/03/05 12:44:42;;;;;;;6.38;0.50;;;11.90;34.20;;;;;;6332654;22;20102;-62
2021/03/05 12:47:08;;;;;;;0.80;0.30;;;11.60;33.30;;;;;;6332220;22;20054;-66
2021/03/05 12:49:34;;;;;;;8.50;0.50;;;11.50;36.20;;;;;;6336007;22;20023;-66
2021/03/05 12:52:00;;;;;;;2.83;0.85;;;11.50;35.30;;;;;;6331963;22;20038;-64
2021/03/05 12:54:26;;;;;;;4.38;0.82;;;11.10;33.60;;;;;;6332578;22;20096;-63
2021/03/05 12:56:52;;;;;;;10.88;0.38;;;11.10;34.60;;;;;;6336245;22;20050;-62
2021/03/05 12:59:18;;;;;;;0.40;0.20;;;11.10;33.10;;;;;;6305069;22;20480;-64